Time;durP1;ratioP1;P1;durP2;ratioP2;P2;SDS_P1;SDS_P2;PMS_P1;PMS_P2;Temp;Humidity;BMP_temperature;BMP_pressure;BME280_temperature;BME280_humidity;BME280_pressure;Samples;Min_cycle;Max_cycle;Signal;HPM_P1;HPM_P2
2022/11/10 00:00:04;;;;;;;24.27;2.13;;;11.50;99.90;;;;;;5030822;28;20243;-56
2022/11/10 00:02:30;;;;;;;8.13;1.57;;;11.50;99.90;;;;;;5031380;28;20174;-56
2022/11/10 00:04:56;;;;;;;15.90;1.90;;;11.50;99.90;;;;;;5037072;28;20716;-56
2022/11/10 00:07:26;;;;;;;17.00;2.27;;;11.60;99.90;;;;;;5036963;28;20209;-56
2022/11/10 00:09:51;;;;;;;17.13;2.53;;;11.60;99.90;;;;;;5036971;28;20240;-56
2022/11/10 00:12:18;;;;;;;12.90;2.23;;;11.70;99.90;;;;;;5036480;28;20189;-56
2022/11/10 00:17:28;;;;;;;10.53;1.83;;;11.70;99.90;;;;;;5037081;28;20238;-56
2022/11/10 00:19:54;;;;;;;14.17;2.30;;;11.70;99.90;;;;;;5037429;28;20169;-56
2022/11/10 00:22:19;;;;;;;16.50;1.80;;;11.80;99.90;;;;;;5037075;28;20185;-55
2022/11/10 00:24:45;;;;;;;16.37;2.03;;;11.90;99.90;;;;;;5037423;28;20165;-56
2022/11/10 00:27:13;;;;;;;12.53;1.97;;;11.90;99.90;;;;;;5036355;28;20205;-55
2022/11/10 00:29:42;;;;;;;17.20;2.00;;;11.90;99.90;;;;;;5036870;28;20178;-56
2022/11/10 00:32:08;;;;;;;13.40;1.87;;;11.90;99.90;;;;;;5036671;28;20659;-55
2022/11/10 00:34:35;;;;;;;9.73;1.60;;;11.90;99.90;;;;;;5036580;28;20185;-55
2022/11/10 00:37:01;;;;;;;13.50;2.53;;;12.00;99.90;;;;;;5028989;28;20201;-55
2022/11/10 00:39:26;;;;;;;14.87;1.83;;;12.00;99.90;;;;;;5022957;28;20262;-55
2022/11/10 00:41:52;;;;;;;9.80;1.50;;;11.90;99.90;;;;;;5029773;28;20602;-56
2022/11/10 00:44:18;;;;;;;24.57;2.40;;;12.00;99.90;;;;;;5028892;28;20656;-55
2022/11/10 00:46:44;;;;;;;10.70;1.70;;;12.10;99.90;;;;;;5005940;28;20186;-55
2022/11/10 00:49:10;;;;;;;20.50;2.27;;;12.10;99.90;;;;;;5036747;28;20186;-55
2022/11/10 00:51:36;;;;;;;13.13;1.73;;;12.10;99.90;;;;;;5036507;28;20170;-56
2022/11/10 00:54:02;;;;;;;13.33;1.40;;;12.10;99.90;;;;;;5036996;28;20170;-55
2022/11/10 00:56:27;;;;;;;12.50;1.70;;;12.10;99.90;;;;;;5036730;28;20689;-55
2022/11/10 00:58:54;;;;;;;7.60;1.33;;;12.00;99.90;;;;;;5037011;28;20237;-55
2022/11/10 01:01:23;;;;;;;7.53;1.63;;;12.00;99.90;;;;;;5036673;28;20209;-56
2022/11/10 01:03:49;;;;;;;11.13;1.63;;;12.00;99.90;;;;;;5036876;28;20177;-56
2022/11/10 01:06:16;;;;;;;10.77;1.50;;;11.80;99.90;;;;;;5036666;28;20210;-57
2022/11/10 01:08:42;;;;;;;11.63;2.57;;;11.80;99.90;;;;;;5036950;28;20343;-57
2022/11/10 01:11:18;;;;;;;13.77;2.10;;;11.80;99.90;;;;;;5036516;28;20185;-56
2022/11/10 01:13:44;;;;;;;18.07;2.47;;;11.80;99.90;;;;;;5036003;28;20177;-56
2022/11/10 01:16:16;;;;;;;12.00;1.43;;;11.80;99.90;;;;;;5032225;28;20387;-56
2022/11/10 01:18:42;;;;;;;10.97;1.60;;;11.80;99.90;;;;;;5033620;28;20178;-56
2022/11/10 01:21:08;;;;;;;11.97;1.40;;;11.70;99.90;;;;;;5032685;28;20195;-56
2022/11/10 01:23:34;;;;;;;9.27;1.17;;;11.80;99.90;;;;;;5033209;28;20189;-56
2022/11/10 01:26:05;;;;;;;11.93;1.80;;;11.70;99.90;;;;;;5033191;28;20186;-56
2022/11/10 01:28:32;;;;;;;10.60;1.70;;;11.70;99.90;;;;;;5033127;28;20209;-56
2022/11/10 01:31:05;;;;;;;9.40;1.80;;;11.70;99.90;;;;;;5033073;28;20657;-56
2022/11/10 01:33:31;;;;;;;13.67;1.60;;;11.70;99.90;;;;;;5026271;28;20198;-56
2022/11/10 01:35:57;;;;;;;11.40;1.97;;;11.70;99.90;;;;;;5018816;28;20695;-56
2022/11/10 01:38:26;;;;;;;14.33;2.63;;;11.60;99.90;;;;;;5031994;28;20280;-56
2022/11/10 01:40:52;;;;;;;21.17;2.30;;;11.60;99.90;;;;;;5024474;28;20228;-57
2022/11/10 01:43:17;;;;;;;15.50;1.93;;;10.60;99.90;;;;;;5033016;28;20178;-56
2022/11/10 01:45:45;;;;;;;14.80;1.80;;;11.70;99.90;;;;;;5032733;28;20182;-56
2022/11/10 01:48:25;;;;;;;8.93;1.87;;;11.70;99.90;;;;;;5032490;28;20216;-56
2022/11/10 01:50:51;;;;;;;13.67;2.00;;;11.70;99.90;;;;;;5032916;28;20209;-56
2022/11/10 01:53:22;;;;;;;13.67;2.03;;;11.80;99.90;;;;;;5032629;28;20212;-56
2022/11/10 01:55:48;;;;;;;16.20;1.77;;;11.90;99.90;;;;;;5033124;28;20174;-56
2022/11/10 01:58:18;;;;;;;14.70;2.00;;;11.90;99.90;;;;;;5032556;28;20213;-56
2022/11/10 02:00:43;;;;;;;13.57;2.13;;;11.90;99.90;;;;;;5032403;28;20190;-56
2022/11/10 02:03:21;;;;;;;12.07;1.53;;;12.00;99.90;;;;;;5032835;28;20184;-56
2022/11/10 02:05:49;;;;;;;11.20;1.27;;;12.10;99.90;;;;;;5013712;28;20167;-56
2022/11/10 02:08:16;;;;;;;11.87;1.70;;;11.90;99.90;;;;;;5032599;28;20214;-56
2022/11/10 02:10:42;;;;;;;8.80;1.47;;;12.00;99.90;;;;;;5032170;28;20217;-56
2022/11/10 02:13:10;;;;;;;11.67;2.57;;;12.00;99.90;;;;;;5032184;28;20201;-56
2022/11/10 02:15:35;;;;;;;11.87;1.60;;;12.10;99.90;;;;;;5032204;28;20178;-56
2022/11/10 02:18:01;;;;;;;6.73;1.27;;;12.10;99.90;;;;;;5032378;28;20683;-56
2022/11/10 02:20:27;;;;;;;10.57;1.73;;;12.20;99.90;;;;;;5032392;28;20184;-56
2022/11/10 02:22:52;;;;;;;14.93;1.70;;;12.20;99.90;;;;;;5032274;28;20257;-56
2022/11/10 02:25:24;;;;;;;14.57;1.83;;;12.20;99.90;;;;;;5031436;28;20181;-56
2022/11/10 02:27:50;;;;;;;19.27;1.87;;;12.20;99.90;;;;;;5024217;28;20236;-56
2022/11/10 02:30:16;;;;;;;10.63;1.60;;;12.30;99.90;;;;;;5025824;28;20179;-56
2022/11/10 02:32:42;;;;;;;10.77;1.50;;;12.40;99.90;;;;;;5021397;28;20174;-56
2022/11/10 02:35:08;;;;;;;16.23;1.63;;;12.30;99.90;;;;;;5032048;28;20550;-56
2022/11/10 02:37:34;;;;;;;12.20;1.40;;;12.30;99.90;;;;;;5031945;28;20299;-56
2022/11/10 02:39:59;;;;;;;12.27;1.70;;;12.30;99.90;;;;;;5031822;28;20220;-56
2022/11/10 02:42:25;;;;;;;10.40;1.63;;;12.30;99.90;;;;;;5031690;28;20222;-57
2022/11/10 02:44:51;;;;;;;11.67;1.53;;;12.40;99.90;;;;;;5031696;28;20210;-56
2022/11/10 02:47:17;;;;;;;12.17;2.20;;;12.30;99.90;;;;;;5031781;28;20249;-56
2022/11/10 02:49:43;;;;;;;16.13;1.73;;;12.40;99.90;;;;;;5032098;28;20170;-56
2022/11/10 02:52:10;;;;;;;9.87;1.40;;;12.40;99.90;;;;;;5013982;28;20584;-56
2022/11/10 02:54:35;;;;;;;11.70;1.77;;;12.30;99.90;;;;;;5031653;28;20192;-56
2022/11/10 02:57:01;;;;;;;11.40;1.23;;;12.30;99.90;;;;;;5031232;28;20174;-56
2022/11/10 02:59:27;;;;;;;15.47;1.60;;;12.40;99.90;;;;;;5031168;28;20730;-56
2022/11/10 03:01:53;;;;;;;9.43;1.60;;;12.40;99.90;;;;;;5031583;28;20659;-56
2022/11/10 03:04:19;;;;;;;14.87;1.63;;;12.40;99.90;;;;;;5031320;28;20170;-57
2022/11/10 03:06:45;;;;;;;11.67;1.80;;;12.40;99.90;;;;;;5031126;28;20185;-57
2022/11/10 03:09:10;;;;;;;11.23;1.60;;;12.40;99.90;;;;;;5031141;28;20209;-57
2022/11/10 03:11:36;;;;;;;10.43;1.17;;;12.50;99.90;;;;;;5031133;28;20210;-56
2022/11/10 03:14:02;;;;;;;12.10;2.00;;;12.50;99.90;;;;;;5031458;28;20247;-57
2022/11/10 03:16:28;;;;;;;9.43;1.40;;;12.50;99.90;;;;;;5030769;28;20205;-57
2022/11/10 03:18:54;;;;;;;9.67;1.40;;;12.50;99.90;;;;;;5031178;28;20589;-57
2022/11/10 03:21:19;;;;;;;12.00;1.47;;;12.50;99.90;;;;;;5029078;28;20634;-58
2022/11/10 03:23:45;;;;;;;13.70;1.77;;;12.60;99.90;;;;;;5024931;28;20683;-57
2022/11/10 03:26:11;;;;;;;11.73;1.67;;;12.50;99.90;;;;;;5022039;28;20210;-57
2022/11/10 03:28:36;;;;;;;8.53;1.17;;;12.60;99.90;;;;;;5016318;28;20513;-57
2022/11/10 03:31:02;;;;;;;10.20;1.40;;;12.60;99.90;;;;;;5023016;28;20688;-57
2022/11/10 03:33:28;;;;;;;13.30;1.23;;;12.50;99.90;;;;;;5029617;28;20185;-56
2022/11/10 03:35:53;;;;;;;13.27;1.87;;;12.50;99.90;;;;;;5019799;28;20175;-56
2022/11/10 03:38:19;;;;;;;14.10;1.80;;;12.60;99.90;;;;;;5030305;28;20174;-56
2022/11/10 03:40:44;;;;;;;11.87;1.83;;;12.50;99.90;;;;;;5030094;28;20174;-56
2022/11/10 03:43:11;;;;;;;7.47;1.50;;;12.60;99.90;;;;;;5030836;28;20194;-57
2022/11/10 03:45:36;;;;;;;15.40;1.93;;;12.60;99.90;;;;;;5030913;28;20173;-56
2022/11/10 03:48:02;;;;;;;20.10;2.33;;;12.70;99.90;;;;;;5030772;28;20214;-56
2022/11/10 03:50:28;;;;;;;11.20;1.70;;;12.70;99.90;;;;;;5030517;28;20178;-56
2022/11/10 03:52:53;;;;;;;19.90;1.73;;;12.70;99.90;;;;;;5030403;28;20195;-56
2022/11/10 03:55:19;;;;;;;11.93;1.57;;;12.80;99.90;;;;;;5030679;28;20182;-56
2022/11/10 03:57:45;;;;;;;11.07;1.93;;;12.80;99.90;;;;;;5030190;28;20178;-56
2022/11/10 04:00:12;;;;;;;14.77;1.70;;;12.80;99.90;;;;;;5030895;28;20190;-56
2022/11/10 04:02:39;;;;;;;15.00;2.00;;;12.80;99.90;;;;;;5030529;28;20189;-56
2022/11/10 04:10:43;;;;;;;14.20;1.60;;;13.00;99.90;;;;;;5030616;28;20208;-57
2022/11/10 04:15:53;;;;;;;11.40;1.40;;;12.90;99.90;;;;;;5030509;28;20236;-56
2022/11/10 04:18:24;;;;;;;9.07;1.33;;;12.90;99.90;;;;;;5023001;28;20189;-56
2022/11/10 04:21:00;;;;;;;12.40;1.53;;;12.90;99.90;;;;;;5030267;28;20175;-56
2022/11/10 04:23:33;;;;;;;9.87;1.50;;;12.90;99.90;;;;;;5018495;28;20229;-57
2022/11/10 04:28:54;;;;;;;9.30;1.20;;;12.90;99.90;;;;;;5030111;28;20228;-56
2022/11/10 04:31:22;;;;;;;10.63;1.47;;;13.00;99.90;;;;;;5030730;28;20177;-56
2022/11/10 04:33:49;;;;;;;9.43;1.50;;;13.00;99.90;;;;;;5030230;28;20182;-56
2022/11/10 04:36:21;;;;;;;11.87;1.50;;;13.00;99.90;;;;;;5014541;28;20768;-55
2022/11/10 04:38:47;;;;;;;8.67;1.37;;;13.20;99.90;;;;;;5030534;28;20167;-56
2022/11/10 04:41:14;;;;;;;6.97;1.10;;;13.00;99.90;;;;;;5029306;28;20185;-57
2022/11/10 04:43:41;;;;;;;7.70;1.27;;;12.90;99.90;;;;;;5030135;28;20216;-57
2022/11/10 04:46:14;;;;;;;10.90;1.30;;;13.10;99.90;;;;;;5030051;28;20225;-57
2022/11/10 04:48:40;;;;;;;8.97;1.33;;;13.10;99.90;;;;;;5012521;28;20676;-57
2022/11/10 04:51:06;;;;;;;11.03;1.30;;;13.10;99.90;;;;;;5033874;28;20188;-57
2022/11/10 04:53:32;;;;;;;14.47;1.47;;;13.10;99.90;;;;;;5033759;28;20181;-56
2022/11/10 04:55:58;;;;;;;10.47;1.43;;;13.10;99.90;;;;;;5034240;28;20244;-56
2022/11/10 04:58:24;;;;;;;8.43;1.20;;;13.10;99.90;;;;;;5033695;28;20680;-57
2022/11/10 05:00:49;;;;;;;9.67;1.10;;;13.00;99.90;;;;;;5033639;28;20207;-57
2022/11/10 05:03:15;;;;;;;10.53;1.70;;;13.10;99.90;;;;;;5033917;28;20212;-56
2022/11/10 05:05:41;;;;;;;8.73;1.20;;;13.10;99.90;;;;;;5033869;28;20182;-56
2022/11/10 05:08:08;;;;;;;14.03;1.17;;;13.10;99.90;;;;;;5033724;28;20641;-56
2022/11/10 05:10:35;;;;;;;15.13;1.30;;;13.10;99.90;;;;;;5033648;28;20231;-57
2022/11/10 05:13:02;;;;;;;8.10;1.43;;;13.00;99.90;;;;;;5025735;28;20209;-56
2022/11/10 05:15:27;;;;;;;16.50;1.70;;;13.10;99.90;;;;;;5033494;28;20256;-56
2022/11/10 05:17:54;;;;;;;15.80;1.97;;;12.70;99.90;;;;;;5031452;28;20319;-57
2022/11/10 05:20:21;;;;;;;15.40;1.83;;;13.10;99.90;;;;;;5023020;28;20539;-57
2022/11/10 05:23:36;;;;;;;20.57;1.60;;;13.10;99.90;;;;;;5033675;28;20174;-56
2022/11/10 05:25:36;;;;;;;14.90;1.03;;;13.10;99.90;;;;;;5019203;28;20177;-56
2022/11/10 05:28:04;;;;;;;10.97;1.27;;;13.10;99.90;;;;;;5033010;28;20291;-56
2022/11/10 05:30:30;;;;;;;9.63;1.20;;;13.20;99.90;;;;;;5033569;28;20323;-56
2022/11/10 05:32:56;;;;;;;10.40;1.20;;;13.10;99.90;;;;;;5033509;28;20216;-56
2022/11/10 05:35:21;;;;;;;16.60;1.83;;;13.20;99.90;;;;;;5032964;28;20715;-56
2022/11/10 05:37:48;;;;;;;12.50;1.57;;;13.20;99.90;;;;;;5032833;28;20178;-56
2022/11/10 05:40:14;;;;;;;9.97;1.23;;;;;;;;;;5033250;28;20178;-56
2022/11/10 05:42:48;;;;;;;13.10;1.20;;;13.10;99.90;;;;;;5032561;28;20198;-56
2022/11/10 05:45:14;;;;;;;15.77;1.57;;;13.10;99.90;;;;;;5032627;28;20190;-55
2022/11/10 05:47:40;;;;;;;14.80;1.60;;;13.20;99.90;;;;;;5032866;28;20212;-59
2022/11/10 05:50:07;;;;;;;14.80;1.90;;;13.20;99.90;;;;;;5032683;28;20182;-56
2022/11/10 05:52:33;;;;;;;10.50;1.47;;;13.20;99.90;;;;;;5032534;28;20182;-56
2022/11/10 05:54:58;;;;;;;10.43;1.33;;;13.30;99.90;;;;;;5032751;28;20227;-56
2022/11/10 05:57:24;;;;;;;12.03;1.47;;;13.30;99.90;;;;;;5032448;28;20269;-56
2022/11/10 05:59:50;;;;;;;6.87;1.13;;;13.30;99.90;;;;;;5032460;28;20229;-56
2022/11/10 06:02:16;;;;;;;14.47;1.50;;;13.30;99.90;;;;;;5031998;28;20170;-56
2022/11/10 06:04:41;;;;;;;9.40;1.03;;;13.30;99.90;;;;;;5032631;28;20209;-56
2022/11/10 06:07:07;;;;;;;8.93;1.40;;;13.30;99.90;;;;;;5031171;28;20684;-56
2022/11/10 06:09:35;;;;;;;13.80;1.93;;;13.30;99.90;;;;;;5026871;28;20564;-56
2022/11/10 06:12:02;;;;;;;4.77;0.90;;;13.30;99.90;;;;;;5027283;28;20210;-56
2022/11/10 06:14:28;;;;;;;10.00;1.13;;;13.30;99.90;;;;;;5030663;28;20182;-56
2022/11/10 06:16:53;;;;;;;9.90;1.30;;;13.30;99.90;;;;;;5018845;28;20196;-56
2022/11/10 06:19:19;;;;;;;14.93;1.27;;;13.30;99.90;;;;;;5031874;28;20663;-56
2022/11/10 06:21:44;;;;;;;8.90;1.30;;;13.30;99.90;;;;;;5032077;28;20553;-56
2022/11/10 06:24:10;;;;;;;15.20;1.90;;;13.30;99.90;;;;;;5031975;28;20568;-55
2022/11/10 06:26:36;;;;;;;12.80;1.40;;;13.30;99.90;;;;;;5032497;28;20716;-56
2022/11/10 06:29:02;;;;;;;11.90;1.23;;;13.30;99.90;;;;;;5031632;28;20209;-55
2022/11/10 06:31:27;;;;;;;12.93;1.77;;;13.30;99.90;;;;;;5032655;28;20178;-55
2022/11/10 06:33:54;;;;;;;14.33;1.53;;;13.30;99.90;;;;;;5032022;28;20181;-56
2022/11/10 06:36:20;;;;;;;11.27;1.43;;;13.30;99.90;;;;;;5032496;28;20178;-57
2022/11/10 06:38:46;;;;;;;4.83;0.90;;;13.20;99.90;;;;;;5031801;28;20228;-56
2022/11/10 06:41:11;;;;;;;12.87;1.53;;;13.20;99.90;;;;;;5031331;28;20540;-56
2022/11/10 06:43:37;;;;;;;16.10;1.97;;;13.10;99.90;;;;;;5031262;28;20169;-56
2022/11/10 06:46:03;;;;;;;12.40;1.60;;;13.20;99.90;;;;;;5013693;28;20177;-56
2022/11/10 06:48:29;;;;;;;13.93;1.77;;;13.20;99.90;;;;;;5031088;28;20586;-56
2022/11/10 06:50:54;;;;;;;15.73;1.90;;;13.20;99.90;;;;;;5027266;28;20170;-56
2022/11/10 06:53:20;;;;;;;13.40;1.63;;;13.10;99.90;;;;;;5013586;28;20182;-56
2022/11/10 06:55:46;;;;;;;11.17;1.60;;;13.00;99.90;;;;;;5031179;28;20177;-56
2022/11/10 06:58:11;;;;;;;17.70;2.47;;;13.00;99.90;;;;;;5031688;28;20209;-57
2022/11/10 07:00:37;;;;;;;14.53;1.60;;;13.00;99.90;;;;;;5031773;28;20661;-56
2022/11/10 07:03:05;;;;;;;16.13;1.60;;;13.00;99.90;;;;;;5030956;28;20542;-56
2022/11/10 07:05:33;;;;;;;11.63;1.60;;;12.90;99.90;;;;;;5025477;28;20204;-56
2022/11/10 07:08:08;;;;;;;16.17;1.90;;;12.90;99.90;;;;;;5031167;28;20209;-56
2022/11/10 07:10:34;;;;;;;14.93;1.80;;;12.90;99.90;;;;;;5031379;28;20173;-55
2022/11/10 07:13:01;;;;;;;13.77;1.50;;;12.80;99.90;;;;;;5030331;28;20201;-55
2022/11/10 07:15:27;;;;;;;10.90;1.87;;;12.80;99.90;;;;;;5030306;28;20269;-55
2022/11/10 07:17:53;;;;;;;11.60;1.80;;;12.90;99.90;;;;;;5031021;28;20181;-55
2022/11/10 07:20:19;;;;;;;16.63;1.77;;;12.90;99.90;;;;;;5030609;28;20178;-55
2022/11/10 07:22:45;;;;;;;19.27;1.50;;;12.90;99.90;;;;;;5030852;28;20227;-56
2022/11/10 07:25:11;;;;;;;15.00;1.83;;;13.00;99.90;;;;;;5031292;28;20181;-55
2022/11/10 07:27:37;;;;;;;17.77;1.60;;;13.00;99.90;;;;;;5030735;28;20197;-55
2022/11/10 07:30:04;;;;;;;20.37;2.10;;;13.10;99.90;;;;;;5031015;28;20517;-55
2022/11/10 07:32:29;;;;;;;17.57;1.70;;;13.10;99.90;;;;;;5030010;28;20231;-55
2022/11/10 07:34:55;;;;;;;10.40;1.47;;;13.10;99.90;;;;;;5030873;28;20178;-55
2022/11/10 07:37:21;;;;;;;15.37;2.17;;;13.10;99.90;;;;;;5030276;28;20476;-55
2022/11/10 07:39:46;;;;;;;15.30;1.80;;;13.10;99.90;;;;;;5030760;28;20188;-54
2022/11/10 07:42:12;;;;;;;10.37;1.70;;;13.10;99.90;;;;;;5030434;28;20166;-56
2022/11/10 07:44:38;;;;;;;12.70;1.83;;;13.10;99.90;;;;;;5029689;28;20192;-56
2022/11/10 07:47:03;;;;;;;14.93;1.30;;;13.10;99.90;;;;;;5030501;28;20262;-56
2022/11/10 07:49:29;;;;;;;10.83;1.77;;;13.10;99.90;;;;;;5029321;28;20185;-57
2022/11/10 07:51:55;;;;;;;17.43;1.90;;;13.10;99.90;;;;;;5030163;28;20702;-55
2022/11/10 07:54:20;;;;;;;15.00;2.00;;;13.00;99.90;;;;;;5030090;28;20178;-56
2022/11/10 07:56:47;;;;;;;11.63;1.47;;;13.20;99.90;;;;;;5030256;28;20198;-56
2022/11/10 07:59:12;;;;;;;10.67;1.67;;;13.20;99.90;;;;;;5030791;28;20229;-58
2022/11/10 08:01:38;;;;;;;9.53;1.50;;;13.30;99.90;;;;;;5029106;28;20703;-56
2022/11/10 08:04:04;;;;;;;6.67;1.50;;;13.30;99.90;;;;;;5018353;28;20171;-58
2022/11/10 08:06:30;;;;;;;13.80;1.50;;;13.30;99.90;;;;;;5006933;28;20194;-56
2022/11/10 08:08:56;;;;;;;12.93;1.60;;;13.40;99.90;;;;;;5011177;28;20336;-57
2022/11/10 08:11:22;;;;;;;13.43;1.77;;;13.40;99.90;;;;;;5015185;28;20657;-56
2022/11/10 08:13:47;;;;;;;11.40;1.40;;;13.50;99.90;;;;;;5030823;28;20210;-56
2022/11/10 08:16:13;;;;;;;13.10;1.83;;;13.50;99.90;;;;;;5030867;28;20169;-57
2022/11/10 08:18:39;;;;;;;6.57;1.27;;;13.60;99.90;;;;;;5030657;28;20223;-57
2022/11/10 08:21:05;;;;;;;13.17;1.70;;;13.60;99.90;;;;;;5030788;28;20365;-57
2022/11/10 08:23:31;;;;;;;10.70;1.73;;;13.70;99.90;;;;;;5030674;28;20184;-57
2022/11/10 08:25:58;;;;;;;14.07;1.90;;;13.70;99.90;;;;;;5034608;28;20182;-57
2022/11/10 08:28:25;;;;;;;6.93;1.17;;;13.70;99.90;;;;;;5034643;28;20205;-57
2022/11/10 08:30:51;;;;;;;11.43;1.80;;;13.70;99.90;;;;;;5034227;28;20256;-58
2022/11/10 08:33:18;;;;;;;12.53;1.40;;;13.80;99.90;;;;;;5034281;28;20192;-58
2022/11/10 08:35:48;;;;;;;11.60;1.87;;;13.80;99.90;;;;;;5034587;28;20170;-58
2022/11/10 08:38:14;;;;;;;11.13;1.53;;;13.80;99.90;;;;;;5033735;28;20178;-57
2022/11/10 08:40:41;;;;;;;17.07;1.80;;;13.90;99.90;;;;;;5034434;28;20198;-57
2022/11/10 08:43:07;;;;;;;10.10;1.60;;;13.90;99.90;;;;;;5033834;28;20174;-57
2022/11/10 08:45:34;;;;;;;11.63;1.93;;;14.00;99.90;;;;;;5034471;28;20166;-58
2022/11/10 08:48:04;;;;;;;10.27;1.27;;;14.00;99.90;;;;;;5033765;28;20214;-57
2022/11/10 08:50:30;;;;;;;10.63;1.90;;;14.00;99.90;;;;;;5033473;28;20784;-54
2022/11/10 08:52:56;;;;;;;10.70;1.60;;;14.10;99.90;;;;;;5033567;28;20182;-56
2022/11/10 08:55:22;;;;;;;12.27;1.37;;;14.10;99.90;;;;;;5032602;28;20676;-55
2022/11/10 08:57:48;;;;;;;10.70;1.70;;;13.40;99.90;;;;;;5027521;28;20722;-56
2022/11/10 09:00:15;;;;;;;5.37;1.20;;;14.10;99.90;;;;;;5033569;28;20264;-56
2022/11/10 09:02:41;;;;;;;10.53;1.83;;;14.10;99.90;;;;;;5015359;28;20182;-56
2022/11/10 09:05:07;;;;;;;11.03;1.87;;;13.80;99.90;;;;;;5013639;28;20179;-56
2022/11/10 09:07:46;;;;;;;15.07;1.60;;;14.20;99.90;;;;;;5032069;28;20208;-56
2022/11/10 09:10:13;;;;;;;11.53;1.40;;;14.10;99.90;;;;;;5033584;28;20541;-56
2022/11/10 09:12:40;;;;;;;8.50;1.60;;;14.10;99.90;;;;;;5033819;28;20174;-56
2022/11/10 09:15:07;;;;;;;8.63;1.13;;;14.20;99.90;;;;;;5033167;28;20170;-56
2022/11/10 09:17:32;;;;;;;11.00;1.73;;;14.20;99.90;;;;;;5032749;28;20182;-56
2022/11/10 09:19:58;;;;;;;16.03;1.87;;;14.20;99.90;;;;;;5013582;28;20269;-57
2022/11/10 09:22:24;;;;;;;11.23;1.90;;;14.20;99.90;;;;;;5033576;28;20698;-56
2022/11/10 09:24:50;;;;;;;14.40;2.23;;;14.20;99.90;;;;;;5033455;28;20170;-56
2022/11/10 09:27:15;;;;;;;13.53;1.30;;;14.20;99.90;;;;;;5033236;28;20675;-56
2022/11/10 09:29:41;;;;;;;15.25;1.63;;;14.20;99.90;;;;;;5033661;28;20949;-57
2022/11/10 09:32:06;;;;;;;11.00;2.20;;;14.10;99.90;;;;;;5033860;28;20170;-57
2022/11/10 09:34:32;;;;;;;15.20;1.80;;;14.10;99.90;;;;;;5032868;28;20671;-56
2022/11/10 09:36:58;;;;;;;14.90;1.90;;;14.10;99.90;;;;;;5017448;28;20216;-56
2022/11/10 09:39:23;;;;;;;11.60;2.03;;;14.10;99.90;;;;;;5013986;28;20250;-56
2022/11/10 09:41:49;;;;;;;14.40;1.83;;;14.10;99.90;;;;;;5033224;28;20188;-57
2022/11/10 09:44:26;;;;;;;10.47;2.00;;;14.10;99.90;;;;;;5032975;28;20632;-56
2022/11/10 09:47:08;;;;;;;12.07;1.70;;;14.10;99.90;;;;;;5033083;28;20723;-56
2022/11/10 09:49:39;;;;;;;9.23;2.17;;;14.10;99.90;;;;;;5032657;28;20193;-58
2022/11/10 09:52:07;;;;;;;13.87;1.97;;;14.00;99.90;;;;;;5021066;28;20194;-56
2022/11/10 09:55:01;;;;;;;25.23;2.03;;;14.10;99.90;;;;;;5012522;28;20182;-58
2022/11/10 09:57:29;;;;;;;10.17;1.80;;;14.00;99.90;;;;;;5019062;28;20210;-58
2022/11/10 09:59:55;;;;;;;10.10;1.67;;;14.00;99.90;;;;;;5012878;28;20226;-57
2022/11/10 10:02:20;;;;;;;11.33;1.90;;;13.90;99.90;;;;;;5012781;28;20236;-57
2022/11/10 10:04:52;;;;;;;16.97;2.27;;;14.00;99.90;;;;;;5013255;28;20179;-57
2022/11/10 10:07:34;;;;;;;13.57;1.90;;;14.00;99.90;;;;;;5017801;28;20166;-55
2022/11/10 10:10:21;;;;;;;9.03;2.07;;;14.10;99.90;;;;;;5023059;28;20186;-55
2022/11/10 10:13:18;;;;;;;11.43;2.37;;;14.00;99.90;;;;;;5032854;28;20174;-55
2022/11/10 10:16:10;;;;;;;11.33;2.20;;;14.00;99.90;;;;;;5032740;28;20170;-55
2022/11/10 10:19:02;;;;;;;11.07;2.33;;;14.00;99.90;;;;;;5032757;28;20657;-56
2022/11/10 10:21:46;;;;;;;14.07;2.23;;;14.20;99.90;;;;;;5014253;28;20181;-57
2022/11/10 10:24:15;;;;;;;18.73;2.27;;;15.30;99.90;;;;;;5032282;28;20177;-55
2022/11/10 10:26:48;;;;;;;18.43;2.17;;;13.90;99.90;;;;;;5032473;28;20637;-54
2022/11/10 10:29:23;;;;;;;11.57;2.37;;;14.00;99.90;;;;;;5032179;28;20210;-54
2022/11/10 10:31:51;;;;;;;12.53;2.10;;;14.00;99.90;;;;;;5032435;28;20177;-56
2022/11/10 10:34:20;;;;;;;13.67;2.30;;;13.90;99.90;;;;;;5032012;28;20174;-57
2022/11/10 10:36:47;;;;;;;6.93;1.50;;;14.00;99.90;;;;;;5031938;28;20259;-57
2022/11/10 10:39:42;;;;;;;10.90;2.70;;;14.00;99.90;;;;;;5031518;28;20166;-57
2022/11/10 10:42:22;;;;;;;12.67;2.10;;;14.10;99.90;;;;;;5031665;28;20162;-57
2022/11/10 10:45:27;;;;;;;8.67;1.20;;;14.10;99.90;;;;;;5030706;28;20268;-57
2022/11/10 10:47:55;;;;;;;9.67;1.80;;;14.20;99.90;;;;;;5017881;28;20217;-57
2022/11/10 10:50:33;;;;;;;14.97;2.43;;;14.30;99.90;;;;;;5031759;28;20220;-57
2022/11/10 10:53:16;;;;;;;17.20;1.90;;;14.30;99.90;;;;;;5012115;28;20198;-57
2022/11/10 10:56:20;;;;;;;11.40;1.90;;;14.40;99.90;;;;;;4994630;28;20174;-57
2022/11/10 10:58:57;;;;;;;11.27;1.33;;;14.50;99.90;;;;;;5008256;28;20230;-57
2022/11/10 11:01:29;;;;;;;9.10;1.40;;;14.50;99.90;;;;;;5010122;28;20225;-56
2022/11/10 11:03:55;;;;;;;17.93;1.60;;;14.60;99.90;;;;;;5021975;28;20178;-57
2022/11/10 11:06:24;;;;;;;8.87;1.60;;;14.70;99.90;;;;;;5031201;28;20651;-59
2022/11/10 11:09:07;;;;;;;10.53;1.53;;;14.70;99.90;;;;;;5029752;28;20205;-57
2022/11/10 11:11:36;;;;;;;12.73;2.03;;;14.70;99.90;;;;;;5029706;28;20641;-57
2022/11/10 11:14:21;;;;;;;12.27;1.77;;;14.70;99.90;;;;;;5029668;28;20240;-56
2022/11/10 11:16:52;;;;;;;13.83;2.10;;;14.70;99.90;;;;;;5029543;28;20177;-57
2022/11/10 11:19:20;;;;;;;7.80;1.23;;;14.70;99.90;;;;;;5029736;28;20246;-57
2022/11/10 11:22:27;;;;;;;10.20;1.10;;;14.80;99.90;;;;;;5029491;28;20177;-57
2022/11/10 11:25:28;;;;;;;10.20;1.40;;;14.80;99.90;;;;;;5029716;28;20177;-57
2022/11/10 11:28:34;;;;;;;16.60;1.67;;;14.80;99.90;;;;;;4987365;28;20263;-57
2022/11/10 11:31:25;;;;;;;11.63;1.70;;;14.80;99.90;;;;;;4989681;28;20205;-57
2022/11/10 11:34:04;;;;;;;9.07;1.33;;;14.80;99.90;;;;;;5029946;28;20209;-57
2022/11/10 11:36:57;;;;;;;13.48;2.10;;;14.90;99.90;;;;;;5031339;28;20268;-57
2022/11/10 11:39:37;;;;;;;13.18;1.70;;;14.90;99.90;;;;;;5031210;28;20204;-57
2022/11/10 11:42:33;;;;;;;12.27;1.80;;;14.90;99.90;;;;;;5031212;28;20202;-57
2022/11/10 11:45:09;;;;;;;14.43;2.23;;;14.90;99.90;;;;;;5031240;28;20170;-57
2022/11/10 11:47:55;;;;;;;11.70;2.23;;;14.80;99.90;;;;;;5031049;28;20236;-57
2022/11/10 11:50:28;;;;;;;11.90;1.77;;;14.80;99.90;;;;;;5030969;28;20723;-57
2022/11/10 11:53:16;;;;;;;14.13;2.53;;;14.80;99.90;;;;;;5030980;28;20174;-57
2022/11/10 11:55:59;;;;;;;13.60;1.73;;;14.80;99.90;;;;;;5030943;28;20252;-58
2022/11/10 11:58:48;;;;;;;15.77;1.97;;;14.80;99.90;;;;;;5030546;28;20215;-57
2022/11/10 12:01:38;;;;;;;9.95;1.90;;;14.80;99.90;;;;;;5030302;28;20185;-57
2022/11/10 12:04:25;;;;;;;18.05;2.10;;;14.80;99.90;;;;;;5030941;28;20187;-57
2022/11/10 12:07:00;;;;;;;8.73;1.60;;;14.90;99.90;;;;;;5030987;28;20188;-57
2022/11/10 12:09:46;;;;;;;7.57;1.30;;;15.00;99.90;;;;;;5030913;28;20679;-57
2022/11/10 12:12:28;;;;;;;14.15;2.53;;;15.00;99.90;;;;;;5030862;28;20238;-57
2022/11/10 12:15:19;;;;;;;8.45;1.50;;;15.00;99.90;;;;;;5031065;28;20194;-57
2022/11/10 12:17:56;;;;;;;9.43;1.63;;;15.00;99.90;;;;;;5030709;28;20235;-57
2022/11/10 12:20:45;;;;;;;10.83;1.80;;;15.00;99.90;;;;;;5030825;28;20162;-57
2022/11/10 12:23:28;;;;;;;6.30;1.23;;;15.00;99.90;;;;;;5030927;28;20170;-57
2022/11/10 12:26:18;;;;;;;18.02;2.25;;;15.00;99.90;;;;;;5030708;28;20224;-57
2022/11/10 12:29:05;;;;;;;13.95;1.77;;;15.00;99.90;;;;;;5030665;28;20213;-57
2022/11/10 12:31:34;;;;;;;15.37;1.77;;;15.00;99.90;;;;;;5020172;28;20613;-59
2022/11/10 12:34:09;;;;;;;11.40;1.70;;;15.10;99.90;;;;;;5029596;28;20178;-58
2022/11/10 12:36:36;;;;;;;7.57;1.70;;;15.20;99.90;;;;;;5030672;28;20209;-57
2022/11/10 12:39:16;;;;;;;8.87;1.63;;;15.10;99.90;;;;;;5030335;28;20182;-57
2022/11/10 12:41:53;;;;;;;13.68;1.50;;;15.10;99.90;;;;;;5030773;28;20603;-58
2022/11/10 12:44:27;;;;;;;11.52;1.42;;;15.10;99.90;;;;;;5026865;28;20174;-57
2022/11/10 12:46:57;;;;;;;14.00;1.70;;;15.10;99.90;;;;;;5016324;28;20220;-57
2022/11/10 12:49:22;;;;;;;9.23;1.38;;;15.20;99.90;;;;;;5029336;28;20210;-57
2022/11/10 12:51:54;;;;;;;9.93;1.25;;;15.10;99.90;;;;;;5030073;28;20224;-57
2022/11/10 12:54:22;;;;;;;11.98;1.58;;;15.10;99.90;;;;;;5012722;28;20551;-57
2022/11/10 12:57:14;;;;;;;10.38;1.50;;;15.00;99.90;;;;;;5030642;28;20159;-57
2022/11/10 12:59:47;;;;;;;7.10;1.33;;;15.10;99.90;;;;;;5019765;28;20316;-57
2022/11/10 13:02:15;;;;;;;5.00;1.00;;;15.10;99.90;;;;;;5030910;28;20166;-58
2022/11/10 13:04:41;;;;;;;7.40;1.53;;;15.20;99.90;;;;;;5030345;28;20257;-57